Leersum, Netherlands
Current Conditions -  °F | °C
As of 3:25 PM on Friday 24 Oct 2014 (Local Time) from EHDL Reporting Station
Light Rain Light Rain  
Wind Chill: 54°   Ceiling: 3000
Heat Index: 54°   Visibility: 6mi
Dew Point: 50°   Wind: 10mph
Humidity: 88%   Direction: 170°S
Pressure: 30.03"   Gusts: NA
Location:  52.01°N, 5.43°E
Report Text: EHDL 241325Z AUTO 17009KT 9999 -DZRA OVC030 12/10 Q1017 BLU
Loading
Personal Weather Stations






























Interactive Weather Map
Tropical Storm Tracking
New forecast layout! Learn more

10-Day Weather Forecast

Advertisements
Track Severe Weather on mobile